sensor_id;sensor_type;location;lat;lon;timestamp;P1;durP1;ratioP1;P2;durP2;ratioP2
57343;SDS011;43180;50.974;18.172;2023-02-28T00:00:26;17.80;;;6.20;;
57343;SDS011;43180;50.974;18.172;2023-02-28T00:10:11;38.90;;;12.30;;
57343;SDS011;43180;50.974;18.172;2023-02-28T00:20:00;11.30;;;6.00;;
57343;SDS011;43180;50.974;18.172;2023-02-28T00:30:01;23.30;;;7.30;;
57343;SDS011;43180;50.974;18.172;2023-02-28T00:39:44;23.10;;;8.90;;
57343;SDS011;43180;50.974;18.172;2023-02-28T00:49:26;13.40;;;6.10;;
57343;SDS011;43180;50.974;18.172;2023-02-28T00:59:11;17.00;;;5.60;;
57343;SDS011;43180;50.974;18.172;2023-02-28T01:08:56;27.20;;;7.80;;
57343;SDS011;43180;50.974;18.172;2023-02-28T01:18:38;21.10;;;8.40;;
57343;SDS011;43180;50.974;18.172;2023-02-28T01:28:36;21.90;;;5.50;;
57343;SDS011;43180;50.974;18.172;2023-02-28T01:38:33;12.00;;;5.40;;
57343;SDS011;43180;50.974;18.172;2023-02-28T01:48:27;10.30;;;5.00;;
57343;SDS011;43180;50.974;18.172;2023-02-28T01:58:15;18.80;;;8.20;;
57343;SDS011;43180;50.974;18.172;2023-02-28T02:08:07;10.90;;;4.60;;
57343;SDS011;43180;50.974;18.172;2023-02-28T02:18:26;39.70;;;9.10;;
57343;SDS011;43180;50.974;18.172;2023-02-28T02:39:07;25.50;;;9.60;;
57343;SDS011;43180;50.974;18.172;2023-02-28T02:49:01;14.00;;;5.90;;
57343;SDS011;43180;50.974;18.172;2023-02-28T02:58:54;13.30;;;7.20;;
57343;SDS011;43180;50.974;18.172;2023-02-28T03:08:46;26.70;;;8.30;;
57343;SDS011;43180;50.974;18.172;2023-02-28T03:39:01;11.50;;;5.50;;
57343;SDS011;43180;50.974;18.172;2023-02-28T03:49:02;39.90;;;9.70;;
57343;SDS011;43180;50.974;18.172;2023-02-28T04:09:03;18.60;;;10.80;;
57343;SDS011;43180;50.974;18.172;2023-02-28T04:18:46;32.20;;;11.60;;
57343;SDS011;43180;50.974;18.172;2023-02-28T04:28:29;28.90;;;8.60;;
57343;SDS011;43180;50.974;18.172;2023-02-28T04:38:26;18.00;;;8.10;;
57343;SDS011;43180;50.974;18.172;2023-02-28T04:48:08;16.20;;;6.20;;
57343;SDS011;43180;50.974;18.172;2023-02-28T04:57:50;23.40;;;7.10;;
57343;SDS011;43180;50.974;18.172;2023-02-28T05:07:33;4.00;;;2.20;;
57343;SDS011;43180;50.974;18.172;2023-02-28T05:17:16;21.70;;;10.90;;
57343;SDS011;43180;50.974;18.172;2023-02-28T05:22:12;65.40;;;31.00;;
57343;SDS011;43180;50.974;18.172;2023-02-28T05:31:59;33.50;;;13.10;;
57343;SDS011;43180;50.974;18.172;2023-02-28T05:41:42;12.70;;;8.40;;
57343;SDS011;43180;50.974;18.172;2023-02-28T05:58:43;18.40;;;5.10;;
57343;SDS011;43180;50.974;18.172;2023-02-28T06:08:40;13.80;;;6.60;;
57343;SDS011;43180;50.974;18.172;2023-02-28T06:25:46;14.40;;;8.00;;
57343;SDS011;43180;50.974;18.172;2023-02-28T06:35:30;19.00;;;8.70;;
57343;SDS011;43180;50.974;18.172;2023-02-28T06:45:13;34.60;;;13.50;;
57343;SDS011;43180;50.974;18.172;2023-02-28T06:54:57;40.90;;;16.40;;
57343;SDS011;43180;50.974;18.172;2023-02-28T07:04:51;32.20;;;13.50;;
57343;SDS011;43180;50.974;18.172;2023-02-28T07:14:33;63.90;;;25.60;;
57343;SDS011;43180;50.974;18.172;2023-02-28T07:24:16;64.90;;;25.20;;
57343;SDS011;43180;50.974;18.172;2023-02-28T07:34:00;64.50;;;29.00;;
57343;SDS011;43180;50.974;18.172;2023-02-28T07:43:44;58.10;;;22.40;;
57343;SDS011;43180;50.974;18.172;2023-02-28T07:53:28;38.80;;;18.20;;
57343;SDS011;43180;50.974;18.172;2023-02-28T08:03:15;26.00;;;10.90;;
57343;SDS011;43180;50.974;18.172;2023-02-28T08:12:59;11.30;;;8.00;;
57343;SDS011;43180;50.974;18.172;2023-02-28T08:22:42;7.30;;;4.10;;
57343;SDS011;43180;50.974;18.172;2023-02-28T08:32:25;4.30;;;2.30;;
57343;SDS011;43180;50.974;18.172;2023-02-28T08:39:43;13.50;;;7.20;;
57343;SDS011;43180;50.974;18.172;2023-02-28T08:49:25;8.50;;;3.90;;
57343;SDS011;43180;50.974;18.172;2023-02-28T08:59:12;12.50;;;4.60;;
57343;SDS011;43180;50.974;18.172;2023-02-28T09:08:59;15.60;;;6.50;;
57343;SDS011;43180;50.974;18.172;2023-02-28T09:18:44;10.80;;;4.60;;
57343;SDS011;43180;50.974;18.172;2023-02-28T09:28:32;3.60;;;3.00;;
57343;SDS011;43180;50.974;18.172;2023-02-28T09:38:17;13.90;;;6.50;;
57343;SDS011;43180;50.974;18.172;2023-02-28T09:48:14;13.90;;;6.00;;
57343;SDS011;43180;50.974;18.172;2023-02-28T09:55:49;15.30;;;8.70;;
57343;SDS011;43180;50.974;18.172;2023-02-28T10:06:17;13.20;;;7.20;;
57343;SDS011;43180;50.974;18.172;2023-02-28T10:16:23;8.90;;;5.80;;
57343;SDS011;43180;50.974;18.172;2023-02-28T10:26:33;11.60;;;6.90;;
57343;SDS011;43180;50.974;18.172;2023-02-28T10:36:17;7.20;;;4.20;;
57343;SDS011;43180;50.974;18.172;2023-02-28T11:06:07;11.20;;;5.70;;
57343;SDS011;43180;50.974;18.172;2023-02-28T11:16:41;9.80;;;5.90;;
57343;SDS011;43180;50.974;18.172;2023-02-28T12:02:35;8.40;;;4.80;;
57343;SDS011;43180;50.974;18.172;2023-02-28T12:13:01;6.30;;;4.30;;
57343;SDS011;43180;50.974;18.172;2023-02-28T12:23:15;12.50;;;6.50;;
57343;SDS011;43180;50.974;18.172;2023-02-28T12:33:24;2.90;;;2.50;;
57343;SDS011;43180;50.974;18.172;2023-02-28T12:43:19;11.40;;;6.00;;
57343;SDS011;43180;50.974;18.172;2023-02-28T13:34:28;7.80;;;5.00;;
57343;SDS011;43180;50.974;18.172;2023-02-28T14:16:21;8.10;;;5.80;;
57343;SDS011;43180;50.974;18.172;2023-02-28T14:37:13;12.60;;;7.80;;
57343;SDS011;43180;50.974;18.172;2023-02-28T14:47:22;10.60;;;5.80;;
57343;SDS011;43180;50.974;18.172;2023-02-28T15:07:48;11.70;;;7.50;;
57343;SDS011;43180;50.974;18.172;2023-02-28T15:18:18;14.80;;;8.90;;
57343;SDS011;43180;50.974;18.172;2023-02-28T15:28:05;16.90;;;11.00;;
57343;SDS011;43180;50.974;18.172;2023-02-28T15:48:22;26.80;;;12.60;;
57343;SDS011;43180;50.974;18.172;2023-02-28T15:58:43;19.70;;;6.50;;
57343;SDS011;43180;50.974;18.172;2023-02-28T16:08:52;25.70;;;16.10;;
57343;SDS011;43180;50.974;18.172;2023-02-28T16:16:14;43.10;;;23.30;;
57343;SDS011;43180;50.974;18.172;2023-02-28T16:25:59;21.80;;;11.80;;
57343;SDS011;43180;50.974;18.172;2023-02-28T16:35:46;25.90;;;11.50;;
57343;SDS011;43180;50.974;18.172;2023-02-28T16:45:53;22.00;;;9.30;;
57343;SDS011;43180;50.974;18.172;2023-02-28T16:55:41;40.50;;;16.60;;
57343;SDS011;43180;50.974;18.172;2023-02-28T17:05:28;29.40;;;11.40;;
57343;SDS011;43180;50.974;18.172;2023-02-28T17:15:17;20.90;;;9.90;;
57343;SDS011;43180;50.974;18.172;2023-02-28T17:25:05;11.30;;;5.00;;
57343;SDS011;43180;50.974;18.172;2023-02-28T17:34:49;17.70;;;8.30;;
57343;SDS011;43180;50.974;18.172;2023-02-28T17:44:31;24.50;;;8.60;;
57343;SDS011;43180;50.974;18.172;2023-02-28T17:54:15;14.30;;;6.70;;
57343;SDS011;43180;50.974;18.172;2023-02-28T18:04:00;22.40;;;7.60;;
57343;SDS011;43180;50.974;18.172;2023-02-28T18:13:49;27.00;;;9.90;;
57343;SDS011;43180;50.974;18.172;2023-02-28T18:23:36;12.40;;;4.70;;
57343;SDS011;43180;50.974;18.172;2023-02-28T18:33:31;24.30;;;9.70;;
57343;SDS011;43180;50.974;18.172;2023-02-28T18:43:20;34.80;;;14.40;;
57343;SDS011;43180;50.974;18.172;2023-02-28T18:53:05;40.20;;;16.10;;
57343;SDS011;43180;50.974;18.172;2023-02-28T19:02:50;30.10;;;11.00;;
57343;SDS011;43180;50.974;18.172;2023-02-28T19:12:34;35.70;;;11.00;;
57343;SDS011;43180;50.974;18.172;2023-02-28T19:22:20;19.70;;;6.90;;
57343;SDS011;43180;50.974;18.172;2023-02-28T19:32:02;23.30;;;8.10;;
57343;SDS011;43180;50.974;18.172;2023-02-28T19:41:46;28.50;;;9.80;;
57343;SDS011;43180;50.974;18.172;2023-02-28T19:51:28;41.60;;;16.80;;
57343;SDS011;43180;50.974;18.172;2023-02-28T20:01:13;28.20;;;11.00;;
57343;SDS011;43180;50.974;18.172;2023-02-28T20:11:03;37.90;;;12.20;;
57343;SDS011;43180;50.974;18.172;2023-02-28T20:20:50;29.20;;;7.40;;
57343;SDS011;43180;50.974;18.172;2023-02-28T20:30:32;21.10;;;8.50;;
57343;SDS011;43180;50.974;18.172;2023-02-28T20:40:15;44.40;;;15.80;;
57343;SDS011;43180;50.974;18.172;2023-02-28T20:49:57;14.20;;;9.10;;
57343;SDS011;43180;50.974;18.172;2023-02-28T20:59:40;27.10;;;11.60;;
57343;SDS011;43180;50.974;18.172;2023-02-28T21:09:23;21.50;;;11.10;;
57343;SDS011;43180;50.974;18.172;2023-02-28T21:19:06;26.20;;;8.50;;
57343;SDS011;43180;50.974;18.172;2023-02-28T21:28:52;45.50;;;10.60;;
57343;SDS011;43180;50.974;18.172;2023-02-28T21:38:46;28.30;;;11.90;;
57343;SDS011;43180;50.974;18.172;2023-02-28T21:48:32;28.80;;;12.30;;
57343;SDS011;43180;50.974;18.172;2023-02-28T21:58:19;40.40;;;15.40;;
57343;SDS011;43180;50.974;18.172;2023-02-28T22:08:02;45.10;;;18.70;;
57343;SDS011;43180;50.974;18.172;2023-02-28T22:17:45;70.40;;;20.70;;
57343;SDS011;43180;50.974;18.172;2023-02-28T22:27:28;23.90;;;12.30;;
57343;SDS011;43180;50.974;18.172;2023-02-28T22:37:15;51.20;;;14.40;;
57343;SDS011;43180;50.974;18.172;2023-02-28T22:46:57;47.30;;;17.60;;
57343;SDS011;43180;50.974;18.172;2023-02-28T22:56:40;49.90;;;11.20;;
57343;SDS011;43180;50.974;18.172;2023-02-28T23:06:25;36.90;;;11.10;;
57343;SDS011;43180;50.974;18.172;2023-02-28T23:26:34;32.60;;;14.70;;
57343;SDS011;43180;50.974;18.172;2023-02-28T23:36:21;60.70;;;16.60;;
57343;SDS011;43180;50.974;18.172;2023-02-28T23:46:06;57.20;;;15.10;;
57343;SDS011;43180;50.974;18.172;2023-02-28T23:55:58;52.90;;;15.40;;
